Pur-navolok — UBNE8 — position and weather

sailwx.info

Track history (hours):
 
Tides and Currents Weather Stations Pressure Air Temp Water Temp Dewpoint Dewpoint Depression Visibility Wind Speed Wind Dir Waves Ship Positions

Pur-navolok

Last reported at 2018-Apr-20 06:19 UTC. Time now 2018-Apr-20 12:46 UTC.
Position N 45°30' E 036°38'.

Length 87 m; draft 3.5 m.

Type: Cargo ship. MMSI: 273314480.

Date/timePositionNaut miles runAvg speedWind from/ knotsBaromVisibWave heightAir tempDewpointWater temp
2018-Apr-20 06:19N 45°30' E 036°38'0 0.0
2018-Apr-20 04:04N 45°30' E 036°38'0 0.0
2018-Apr-20 03:55N 45°30' E 036°38'0 0.0
2018-Apr-20 03:22N 45°30' E 036°38'0 0.0
2018-Apr-19 06:28N 45°30' E 036°38'1 1.1
2018-Apr-19 05:54N 45°30' E 036°38'2 5.4
2018-Apr-19 05:30N 45°32' E 036°40'4 5.3
2018-Apr-19 04:48N 45°35' E 036°43'2 5.2
2018-Apr-19 04:21N 45°37' E 036°45'3 5.4
2018-Apr-19 03:43N 45°40' E 036°47'  
2018-Apr-15 20:22N 45°28' E 036°43'2 6.2
2018-Apr-15 20:00N 45°26' E 036°42'3 6.4
2018-Apr-15 19:30N 45°23' E 036°40'3 5.8
2018-Apr-15 19:01N 45°21' E 036°37'3 6.7
2018-Apr-15 18:30N 45°19' E 036°33'8 5.4
2018-Apr-15 16:58N 45°11' E 036°30'0 0.1
2018-Apr-15 16:16N 45°11' E 036°30'0 0.0
2018-Apr-15 14:49N 45°11' E 036°30'0 0.1
2018-Apr-15 14:22N 45°11' E 036°30'0 0.0
2018-Apr-15 13:52N 45°11' E 036°30'0 0.0
2018-Apr-15 13:19N 45°11' E 036°30'0 0.1
2018-Apr-15 12:43N 45°11' E 036°30'0 0.0
2018-Apr-15 12:22N 45°11' E 036°30'0 0.0
2018-Apr-15 11:52N 45°11' E 036°30'0 0.0
2018-Apr-15 10:52N 45°11' E 036°30'0 0.0
2018-Apr-15 10:25N 45°11' E 036°30'0 0.0
2018-Apr-15 09:58N 45°11' E 036°30'0 0.4
2018-Apr-15 09:30N 45°11' E 036°30'3 4.9
2018-Apr-15 08:55N 45°09' E 036°33'0 0.0
2018-Apr-14 18:59N 45°09' E 036°33'0 0.1
2018-Apr-14 18:22N 45°09' E 036°33'0 0.0
2018-Apr-14 17:58N 45°09' E 036°33'0 0.0
2018-Apr-14 16:22N 45°09' E 036°33'0 0.0
2018-Apr-14 15:55N 45°09' E 036°33'0 0.0
2018-Apr-14 15:25N 45°09' E 036°33'0 0.0
2018-Apr-14 14:58N 45°09' E 036°33'0 0.0
2018-Apr-14 14:16N 45°09' E 036°33'0 0.0
2018-Apr-14 13:49N 45°09' E 036°33'0 0.0
2018-Apr-14 13:25N 45°09' E 036°33'0 0.0
2018-Apr-14 12:58N 45°09' E 036°33'0 0.0
2018-Apr-14 12:22N 45°09' E 036°33'0 0.0
2018-Apr-14 11:55N 45°09' E 036°33'0 0.0
2018-Apr-14 11:19N 45°09' E 036°33'0 0.0
2018-Apr-14 10:52N 45°09' E 036°33'0 0.0
2018-Apr-14 10:22N 45°09' E 036°33'0 0.0
2018-Apr-14 09:52N 45°09' E 036°33'0 0.0
2018-Apr-14 08:46N 45°09' E 036°33'0 0.0
2018-Apr-14 04:16N 45°09' E 036°33'0 0.0
2018-Apr-14 03:46N 45°09' E 036°33'0 0.0
2018-Apr-13 21:58N 45°09' E 036°33'0 0.0
2018-Apr-13 20:31N 45°09' E 036°33'0 0.0
2018-Apr-13 20:25N 45°09' E 036°33'0 0.0
2018-Apr-13 18:58N 45°09' E 036°33'0 0.0
2018-Apr-13 16:49N 45°09' E 036°33'0 0.0
2018-Apr-13 16:28N 45°09' E 036°33'0 0.0
2018-Apr-13 15:55N 45°09' E 036°33'0 0.0
2018-Apr-13 15:25N 45°09' E 036°33'0 0.0
2018-Apr-13 13:55N 45°09' E 036°33'0 0.0
2018-Apr-13 13:25N 45°09' E 036°33'0 0.0
2018-Apr-13 12:58N 45°09' E 036°33'0 0.0
2018-Apr-13 12:25N 45°09' E 036°33'0 0.0
2018-Apr-13 11:46N 45°09' E 036°33'0 0.0
2018-Apr-13 11:25N 45°09' E 036°33'0 0.0
2018-Apr-13 10:52N 45°09' E 036°33'0 0.0
2018-Apr-13 10:28N 45°09' E 036°33'0 0.0
2018-Apr-13 09:52N 45°09' E 036°33'0 0.0
2018-Apr-13 06:28N 45°09' E 036°33'0 0.0
2018-Apr-13 04:52N 45°09' E 036°33'0 0.0
2018-Apr-13 04:22N 45°09' E 036°33'0 0.0
2018-Apr-12 15:01N 45°09' E 036°33'0 0.0
2018-Apr-12 14:43N 45°09' E 036°33'0 0.0
2018-Apr-12 14:25N 45°09' E 036°33'0 0.0
2018-Apr-12 13:40N 45°09' E 036°33'0 0.0
2018-Apr-12 13:28N 45°09' E 036°33'0 0.0
2018-Apr-12 12:58N 45°09' E 036°33'0 0.0
2018-Apr-12 12:16N 45°09' E 036°33'0 0.0
2018-Apr-12 11:58N 45°09' E 036°33'0 0.0
2018-Apr-12 11:25N 45°09' E 036°33'0 0.1
2018-Apr-12 10:58N 45°09' E 036°33'0 0.0
2018-Apr-12 07:13N 45°09' E 036°33'0 0.0
2018-Apr-12 06:04N 45°09' E 036°33'0 0.0
2018-Apr-12 05:55N 45°09' E 036°33'0 0.0
2018-Apr-12 05:28N 45°09' E 036°33'0 0.0
2018-Apr-12 04:52N 45°09' E 036°33'0 0.0
2018-Apr-12 04:19N 45°09' E 036°33'0 0.0
2018-Apr-12 03:55N 45°09' E 036°33'0 0.0
2018-Apr-11 20:43N 45°09' E 036°33'0 0.0
2018-Apr-11 20:25N 45°09' E 036°33'0 0.0
2018-Apr-11 19:58N 45°09' E 036°33'0 0.0
2018-Apr-11 19:28N 45°09' E 036°33'7 2.9
2018-Apr-11 17:06N 45°15' E 036°28'1 5.4
2018-Apr-11 17:00N 45°16' E 036°28'3 5.4
2018-Apr-11 16:30N 45°18' E 036°29'3 5.9
2018-Apr-11 16:00N 45°19' E 036°33'3 6.1
2018-Apr-11 15:31N 45°20' E 036°37'3 5.5
2018-Apr-11 14:59N 45°22' E 036°40'3 5.9
2018-Apr-11 14:30N 45°25' E 036°40'3 5.6
2018-Apr-11 13:59N 45°28' E 036°39'7 0.4
2018-Apr-10 22:53N 45°34' E 036°42'  
Track history (hours):
 
Tides and Currents Weather Stations Pressure Air Temp Water Temp Dewpoint Dewpoint Depression Visibility Wind Speed Wind Dir Waves Ship Positions

Pur-navolok

Last reported at 2018-Apr-20 06:19 UTC. Time now 2018-Apr-20 12:46 UTC.
Position N 45°30' E 036°38'.

Length 87 m; draft 3.5 m.

Type: Cargo ship. MMSI: 273314480.

Date/timePositionNaut miles runAvg speedWind from/ knotsBaromVisibWave heightAir tempDewpointWater temp
2018-Apr-20 06:19N 45°30' E 036°38'0 0.0
2018-Apr-20 04:04N 45°30' E 036°38'0 0.0
2018-Apr-20 03:55N 45°30' E 036°38'0 0.0
2018-Apr-20 03:22N 45°30' E 036°38'0 0.0
2018-Apr-19 06:28N 45°30' E 036°38'1 1.1
2018-Apr-19 05:54N 45°30' E 036°38'2 5.4
2018-Apr-19 05:30N 45°32' E 036°40'4 5.3
2018-Apr-19 04:48N 45°35' E 036°43'2 5.2
2018-Apr-19 04:21N 45°37' E 036°45'3 5.4
2018-Apr-19 03:43N 45°40' E 036°47'  
2018-Apr-15 20:22N 45°28' E 036°43'2 6.2
2018-Apr-15 20:00N 45°26' E 036°42'3 6.4
2018-Apr-15 19:30N 45°23' E 036°40'3 5.8
2018-Apr-15 19:01N 45°21' E 036°37'3 6.7
2018-Apr-15 18:30N 45°19' E 036°33'8 5.4
2018-Apr-15 16:58N 45°11' E 036°30'0 0.1
2018-Apr-15 16:16N 45°11' E 036°30'0 0.0
2018-Apr-15 14:49N 45°11' E 036°30'0 0.1
2018-Apr-15 14:22N 45°11' E 036°30'0 0.0
2018-Apr-15 13:52N 45°11' E 036°30'0 0.0
2018-Apr-15 13:19N 45°11' E 036°30'0 0.1
2018-Apr-15 12:43N 45°11' E 036°30'0 0.0
2018-Apr-15 12:22N 45°11' E 036°30'0 0.0
2018-Apr-15 11:52N 45°11' E 036°30'0 0.0
2018-Apr-15 10:52N 45°11' E 036°30'0 0.0
2018-Apr-15 10:25N 45°11' E 036°30'0 0.0
2018-Apr-15 09:58N 45°11' E 036°30'0 0.4
2018-Apr-15 09:30N 45°11' E 036°30'3 4.9
2018-Apr-15 08:55N 45°09' E 036°33'0 0.0
2018-Apr-14 18:59N 45°09' E 036°33'0 0.1
2018-Apr-14 18:22N 45°09' E 036°33'0 0.0
2018-Apr-14 17:58N 45°09' E 036°33'0 0.0
2018-Apr-14 16:22N 45°09' E 036°33'0 0.0
2018-Apr-14 15:55N 45°09' E 036°33'0 0.0
2018-Apr-14 15:25N 45°09' E 036°33'0 0.0
2018-Apr-14 14:58N 45°09' E 036°33'0 0.0
2018-Apr-14 14:16N 45°09' E 036°33'0 0.0
2018-Apr-14 13:49N 45°09' E 036°33'0 0.0
2018-Apr-14 13:25N 45°09' E 036°33'0 0.0
2018-Apr-14 12:58N 45°09' E 036°33'0 0.0
2018-Apr-14 12:22N 45°09' E 036°33'0 0.0
2018-Apr-14 11:55N 45°09' E 036°33'0 0.0
2018-Apr-14 11:19N 45°09' E 036°33'0 0.0
2018-Apr-14 10:52N 45°09' E 036°33'0 0.0
2018-Apr-14 10:22N 45°09' E 036°33'0 0.0
2018-Apr-14 09:52N 45°09' E 036°33'0 0.0
2018-Apr-14 08:46N 45°09' E 036°33'0 0.0
2018-Apr-14 04:16N 45°09' E 036°33'0 0.0
2018-Apr-14 03:46N 45°09' E 036°33'0 0.0
2018-Apr-13 21:58N 45°09' E 036°33'0 0.0
2018-Apr-13 20:31N 45°09' E 036°33'0 0.0
2018-Apr-13 20:25N 45°09' E 036°33'0 0.0
2018-Apr-13 18:58N 45°09' E 036°33'0 0.0
2018-Apr-13 16:49N 45°09' E 036°33'0 0.0
2018-Apr-13 16:28N 45°09' E 036°33'0 0.0
2018-Apr-13 15:55N 45°09' E 036°33'0 0.0
2018-Apr-13 15:25N 45°09' E 036°33'0 0.0
2018-Apr-13 13:55N 45°09' E 036°33'0 0.0
2018-Apr-13 13:25N 45°09' E 036°33'0 0.0
2018-Apr-13 12:58N 45°09' E 036°33'0 0.0
2018-Apr-13 12:25N 45°09' E 036°33'0 0.0
2018-Apr-13 11:46N 45°09' E 036°33'0 0.0
2018-Apr-13 11:25N 45°09' E 036°33'0 0.0
2018-Apr-13 10:52N 45°09' E 036°33'0 0.0
2018-Apr-13 10:28N 45°09' E 036°33'0 0.0
2018-Apr-13 09:52N 45°09' E 036°33'0 0.0
2018-Apr-13 06:28N 45°09' E 036°33'0 0.0
2018-Apr-13 04:52N 45°09' E 036°33'0 0.0
2018-Apr-13 04:22N 45°09' E 036°33'0 0.0
2018-Apr-12 15:01N 45°09' E 036°33'0 0.0
2018-Apr-12 14:43N 45°09' E 036°33'0 0.0
2018-Apr-12 14:25N 45°09' E 036°33'0 0.0
2018-Apr-12 13:40N 45°09' E 036°33'0 0.0
2018-Apr-12 13:28N 45°09' E 036°33'0 0.0
2018-Apr-12 12:58N 45°09' E 036°33'0 0.0
2018-Apr-12 12:16N 45°09' E 036°33'0 0.0
2018-Apr-12 11:58N 45°09' E 036°33'0 0.0
2018-Apr-12 11:25N 45°09' E 036°33'0 0.1
2018-Apr-12 10:58N 45°09' E 036°33'0 0.0
2018-Apr-12 07:13N 45°09' E 036°33'0 0.0
2018-Apr-12 06:04N 45°09' E 036°33'0 0.0
2018-Apr-12 05:55N 45°09' E 036°33'0 0.0
2018-Apr-12 05:28N 45°09' E 036°33'0 0.0
2018-Apr-12 04:52N 45°09' E 036°33'0 0.0
2018-Apr-12 04:19N 45°09' E 036°33'0 0.0
2018-Apr-12 03:55N 45°09' E 036°33'0 0.0
2018-Apr-11 20:43N 45°09' E 036°33'0 0.0
2018-Apr-11 20:25N 45°09' E 036°33'0 0.0
2018-Apr-11 19:58N 45°09' E 036°33'0 0.0
2018-Apr-11 19:28N 45°09' E 036°33'7 2.9
2018-Apr-11 17:06N 45°15' E 036°28'1 5.4
2018-Apr-11 17:00N 45°16' E 036°28'3 5.4
2018-Apr-11 16:30N 45°18' E 036°29'3 5.9
2018-Apr-11 16:00N 45°19' E 036°33'3 6.1
2018-Apr-11 15:31N 45°20' E 036°37'3 5.5
2018-Apr-11 14:59N 45°22' E 036°40'3 5.9
2018-Apr-11 14:30N 45°25' E 036°40'3 5.6
2018-Apr-11 13:59N 45°28' E 036°39'7 0.4
2018-Apr-10 22:53N 45°34' E 036°42'  

Dump ship's entire track history